createdAt,value
2018-05-17T00:01:52.122Z,72.20
2018-05-17T00:04:19.557Z,72.00
2018-05-17T00:06:46.990Z,72.20
2018-05-17T00:09:14.498Z,72.20
2018-05-17T00:11:42.059Z,72.20
2018-05-17T00:14:09.510Z,72.20
2018-05-17T00:16:36.958Z,72.20
2018-05-17T00:19:04.446Z,72.60
2018-05-17T00:21:31.989Z,72.70
2018-05-17T00:23:59.418Z,72.10
2018-05-17T00:26:26.866Z,71.90
2018-05-17T00:28:54.355Z,72.00
2018-05-17T00:31:21.787Z,72.40
2018-05-17T00:33:49.247Z,72.30
2018-05-17T00:36:16.673Z,72.20
2018-05-17T00:38:44.878Z,72.20
2018-05-17T00:41:12.366Z,72.20
2018-05-17T00:43:39.811Z,72.10
2018-05-17T00:46:07.247Z,71.90
2018-05-17T00:48:34.683Z,71.80
2018-05-17T00:51:02.123Z,71.80
2018-05-17T00:53:31.174Z,71.50
2018-05-17T00:55:58.630Z,71.50
2018-05-17T00:58:26.090Z,71.20
2018-05-17T01:00:53.543Z,71.40
2018-05-17T01:03:21.002Z,71.10
2018-05-17T01:05:48.787Z,71.20
2018-05-17T01:08:16.984Z,70.90
2018-05-17T01:10:45.196Z,70.80
2018-05-17T01:13:12.636Z,70.80
2018-05-17T01:15:40.078Z,70.70
2018-05-17T01:18:08.309Z,70.60
2018-05-17T01:20:35.865Z,70.60
2018-05-17T01:23:03.318Z,70.60
2018-05-17T01:25:30.780Z,70.40
2018-05-17T01:27:58.208Z,70.60
2018-05-17T01:30:25.650Z,70.60
2018-05-17T01:32:53.146Z,70.70
2018-05-17T01:35:20.586Z,70.30
2018-05-17T01:38:05.958Z,70.30
2018-05-17T01:40:33.446Z,70.50
2018-05-17T01:43:00.882Z,70.00
2018-05-17T01:45:28.359Z,70.20
2018-05-17T01:47:55.910Z,70.00
2018-05-17T01:50:23.365Z,70.30
2018-05-17T01:52:50.842Z,69.90
2018-05-17T01:55:18.286Z,70.10
2018-05-17T01:57:45.742Z,70.20
2018-05-17T02:00:13.203Z,70.50
2018-05-17T02:02:40.634Z,70.20
2018-05-17T02:05:08.074Z,69.80
2018-05-17T02:07:35.576Z,69.80
2018-05-17T02:10:03.006Z,69.50
2018-05-17T02:12:30.441Z,69.50
2018-05-17T02:14:57.886Z,69.30
2018-05-17T02:17:26.114Z,68.90
2018-05-17T02:19:53.674Z,68.80
2018-05-17T02:22:21.102Z,68.90
2018-05-17T02:24:48.591Z,68.90
2018-05-17T02:27:16.146Z,69.60
2018-05-17T02:29:43.578Z,68.60
2018-05-17T02:32:11.033Z,68.30
2018-05-17T02:34:38.510Z,68.10
2018-05-17T02:37:05.966Z,67.90
2018-05-17T02:39:33.918Z,68.00
2018-05-17T02:42:01.394Z,68.10
2018-05-17T02:44:28.826Z,67.70
2018-05-17T02:46:56.314Z,67.80
2018-05-17T02:49:23.870Z,67.50
2018-05-17T02:51:51.310Z,67.20
2018-05-17T02:54:18.789Z,67.50
2018-05-17T02:56:46.250Z,67.30
2018-05-17T02:59:13.811Z,67.00
2018-05-17T03:01:41.260Z,67.10
2018-05-17T03:04:08.717Z,67.50
2018-05-17T03:06:36.166Z,67.20
2018-05-17T03:09:03.627Z,67.20
2018-05-17T03:11:31.062Z,66.80
2018-05-17T03:13:58.494Z,66.80
2018-05-17T03:16:25.943Z,66.20
2018-05-17T03:18:54.150Z,66.10
2018-05-17T03:21:21.579Z,66.10
2018-05-17T03:23:49.914Z,65.40
2018-05-17T03:26:17.350Z,65.30
2018-05-17T03:28:44.822Z,65.60
2018-05-17T03:31:12.258Z,64.80
2018-05-17T03:33:39.726Z,65.10
2018-05-17T03:36:07.170Z,64.80
2018-05-17T03:38:34.602Z,65.00
2018-05-17T03:41:02.112Z,64.60
2018-05-17T03:43:29.562Z,64.90
2018-05-17T03:45:57.001Z,64.40
2018-05-17T03:48:24.450Z,64.80
2018-05-17T03:50:51.882Z,64.80
2018-05-17T03:53:20.087Z,64.70
2018-05-17T03:55:47.526Z,64.70
2018-05-17T03:58:15.022Z,64.30
2018-05-17T04:00:54.453Z,64.30
2018-05-17T04:03:33.995Z,64.00
2018-05-17T04:06:13.439Z,64.20
2018-05-17T04:08:40.904Z,63.90
2018-05-17T04:11:08.324Z,63.90
2018-05-17T04:13:35.763Z,64.00
2018-05-17T04:16:03.198Z,63.90
2018-05-17T04:18:31.446Z,63.40
2018-05-17T04:20:58.878Z,63.30
2018-05-17T04:23:26.342Z,63.40
2018-05-17T04:25:53.779Z,63.70
2018-05-17T04:28:21.266Z,63.30
2018-05-17T04:30:48.726Z,63.20
2018-05-17T04:33:16.287Z,63.20
2018-05-17T04:35:43.718Z,62.80
2018-05-17T04:38:11.166Z,62.70
2018-05-17T04:40:38.658Z,63.10
2018-05-17T04:43:06.094Z,63.00
2018-05-17T04:45:33.533Z,62.40
2018-05-17T04:48:00.971Z,62.20
2018-05-17T04:50:29.298Z,62.70
2018-05-17T04:52:56.762Z,62.80
2018-05-17T04:55:24.310Z,62.20
2018-05-17T04:57:51.770Z,62.30
2018-05-17T05:00:19.307Z,62.40
2018-05-17T05:02:46.845Z,62.50
2018-05-17T05:05:14.186Z,62.60
2018-05-17T05:07:42.418Z,62.10
2018-05-17T05:10:09.877Z,62.10
2018-05-17T05:12:37.646Z,62.00
2018-05-17T05:15:05.197Z,62.30
2018-05-17T05:17:32.642Z,61.90
2018-05-17T05:20:00.074Z,62.10
2018-05-17T05:22:27.569Z,62.10
2018-05-17T05:24:55.105Z,62.30
2018-05-17T05:27:22.605Z,61.80
2018-05-17T05:29:50.054Z,61.60
2018-05-17T05:32:17.499Z,61.20
2018-05-17T05:34:44.938Z,60.70
2018-05-17T05:37:12.410Z,61.20
2018-05-17T05:39:39.874Z,61.20
2018-05-17T05:42:07.306Z,60.60
2018-05-17T05:44:34.742Z,61.00
2018-05-17T05:47:02.178Z,61.00
2018-05-17T05:49:30.677Z,60.60
2018-05-17T05:51:58.052Z,60.60
2018-05-17T05:54:25.519Z,60.80
2018-05-17T05:56:53.002Z,60.10
2018-05-17T05:59:20.446Z,60.90
2018-05-17T06:01:47.984Z,60.90
2018-05-17T06:04:15.466Z,60.90
2018-05-17T06:06:42.919Z,60.80
2018-05-17T06:09:10.990Z,60.70
2018-05-17T06:11:38.765Z,60.80
2018-05-17T06:14:06.395Z,60.70
2018-05-17T06:16:33.819Z,60.40
2018-05-17T06:19:02.843Z,60.10
2018-05-17T06:21:30.322Z,60.10
2018-05-17T06:23:57.761Z,60.00
2018-05-17T06:26:25.203Z,60.00
2018-05-17T06:28:52.693Z,60.30
2018-05-17T06:31:20.142Z,58.80
2018-05-17T06:33:47.990Z,58.80
2018-05-17T06:36:15.433Z,59.10
2018-05-17T06:38:42.938Z,59.40
2018-05-17T06:41:10.369Z,59.50
2018-05-17T06:43:37.806Z,59.00
2018-05-17T06:46:05.314Z,59.20
2018-05-17T06:48:32.754Z,58.50
2018-05-17T06:51:00.196Z,58.80
2018-05-17T06:53:27.629Z,58.90
2018-05-17T06:55:55.827Z,59.50
2018-05-17T06:58:23.266Z,59.90
2018-05-17T07:00:50.817Z,59.30
2018-05-17T07:03:18.322Z,59.60
2018-05-17T07:05:45.774Z,57.90
2018-05-17T07:08:13.334Z,57.30
2018-05-17T07:10:40.799Z,58.20
2018-05-17T07:13:08.238Z,57.70
2018-05-17T07:15:35.718Z,58.50
2018-05-17T07:18:03.275Z,58.40
2018-05-17T07:20:30.726Z,58.00
2018-05-17T07:22:58.177Z,56.40
2018-05-17T07:25:25.618Z,56.80
2018-05-17T07:27:53.196Z,57.20
2018-05-17T07:30:20.657Z,57.10
2018-05-17T07:32:48.111Z,57.40
2018-05-17T07:35:15.566Z,56.60
2018-05-17T07:37:43.030Z,56.60
2018-05-17T07:40:10.482Z,55.10
2018-05-17T07:42:38.250Z,55.60
2018-05-17T07:45:05.701Z,55.40
2018-05-17T07:47:33.571Z,55.40
2018-05-17T07:50:01.023Z,55.80
2018-05-17T07:52:28.488Z,55.50
2018-05-17T07:54:55.938Z,56.00
2018-05-17T07:57:23.372Z,55.80
2018-05-17T07:59:50.830Z,55.40
2018-05-17T08:02:18.306Z,56.40
2018-05-17T08:04:45.770Z,56.20
2018-05-17T08:07:13.222Z,55.90
2018-05-17T08:09:40.678Z,55.20
2018-05-17T08:12:08.238Z,55.10
2018-05-17T08:14:35.678Z,55.20
2018-05-17T08:17:03.154Z,55.70
2018-05-17T08:19:30.609Z,55.80
2018-05-17T08:21:58.066Z,55.80
2018-05-17T08:24:25.516Z,53.00
2018-05-17T08:26:52.986Z,53.20
2018-05-17T08:29:20.439Z,54.10
2018-05-17T08:31:47.873Z,53.80
2018-05-17T08:34:15.350Z,53.20
2018-05-17T08:36:42.826Z,53.10
2018-05-17T08:39:10.257Z,53.70
2018-05-17T08:41:37.711Z,53.10
2018-05-17T08:44:05.157Z,53.70
2018-05-17T08:46:32.634Z,53.30
2018-05-17T08:49:00.198Z,53.70
2018-05-17T08:51:27.630Z,53.40
2018-05-17T08:53:55.083Z,54.10
2018-05-17T08:56:22.510Z,55.00
2018-05-17T08:58:50.771Z,55.20
2018-05-17T09:01:18.195Z,55.20
2018-05-17T09:03:45.662Z,55.40
2018-05-17T09:06:13.302Z,55.30
2018-05-17T09:08:40.659Z,55.50
2018-05-17T09:11:08.090Z,55.00
2018-05-17T09:13:35.605Z,55.50
2018-05-17T09:16:03.042Z,54.20
2018-05-17T09:18:30.474Z,54.20
2018-05-17T09:20:57.906Z,54.60
2018-05-17T09:23:26.126Z,54.10
2018-05-17T09:25:53.586Z,54.00
2018-05-17T09:28:21.042Z,54.60
2018-05-17T09:30:48.479Z,54.50
2018-05-17T09:33:15.910Z,55.50
2018-05-17T09:35:44.153Z,55.00
2018-05-17T09:38:11.590Z,55.00
2018-05-17T09:40:39.041Z,54.40
2018-05-17T09:43:06.477Z,54.00
2018-05-17T09:45:33.914Z,54.30
2018-05-17T09:48:01.415Z,54.00
2018-05-17T09:50:29.206Z,53.90
2018-05-17T09:52:56.744Z,55.70
2018-05-17T09:55:24.193Z,54.70
2018-05-17T09:57:51.658Z,55.50
2018-05-17T10:00:21.933Z,55.40
2018-05-17T10:02:50.138Z,55.00
2018-05-17T10:05:17.562Z,55.00
2018-05-17T10:07:45.063Z,55.20
2018-05-17T10:10:12.499Z,54.50
2018-05-17T10:12:39.984Z,54.70
2018-05-17T10:15:07.422Z,54.90
2018-05-17T10:17:34.890Z,54.80
2018-05-17T10:20:02.346Z,55.00
2018-05-17T10:22:29.787Z,55.40
2018-05-17T10:24:57.261Z,54.80
2018-05-17T10:27:24.727Z,54.00
2018-05-17T10:29:52.277Z,54.50
2018-05-17T10:32:20.247Z,54.50
2018-05-17T10:34:47.697Z,54.40
2018-05-17T10:37:15.241Z,55.00
2018-05-17T10:39:42.662Z,54.70
2018-05-17T10:42:10.954Z,54.40
2018-05-17T10:44:38.356Z,54.40
2018-05-17T10:47:05.806Z,54.60
2018-05-17T10:49:33.535Z,54.40
2018-05-17T10:52:01.746Z,55.00
2018-05-17T10:54:29.198Z,55.00
2018-05-17T10:56:56.613Z,54.60
2018-05-17T10:59:24.839Z,54.80
2018-05-17T11:01:52.282Z,54.80
2018-05-17T11:04:19.774Z,55.10
2018-05-17T11:06:47.325Z,54.50
2018-05-17T11:09:14.766Z,54.20
2018-05-17T11:11:42.217Z,54.40
2018-05-17T11:14:09.667Z,54.50
2018-05-17T11:16:37.099Z,54.40
2018-05-17T11:19:04.534Z,54.80
2018-05-17T11:21:32.742Z,54.50
2018-05-17T11:24:00.225Z,54.40
2018-05-17T11:26:27.686Z,54.70
2018-05-17T11:28:55.122Z,54.80
2018-05-17T11:31:22.555Z,55.00
2018-05-17T11:33:49.995Z,53.80
2018-05-17T11:36:18.197Z,54.00
2018-05-17T11:38:45.627Z,54.00
2018-05-17T11:41:13.837Z,53.70
2018-05-17T11:43:41.310Z,53.60
2018-05-17T11:46:08.750Z,54.00
2018-05-17T11:48:36.222Z,53.70
2018-05-17T11:51:03.782Z,54.00
2018-05-17T11:53:31.242Z,53.20
2018-05-17T11:55:58.677Z,53.90
2018-05-17T11:58:26.153Z,54.20
2018-05-17T12:00:53.610Z,53.60
2018-05-17T12:03:21.046Z,53.20
2018-05-17T12:05:48.490Z,53.90
2018-05-17T12:08:15.978Z,54.10
2018-05-17T12:10:43.437Z,54.40
2018-05-17T12:13:10.881Z,53.70
2018-05-17T12:15:38.353Z,53.40
2018-05-17T12:18:05.946Z,53.40
2018-05-17T12:20:33.390Z,53.40
2018-05-17T12:23:00.830Z,53.80
2018-05-17T12:25:28.281Z,53.60
2018-05-17T12:27:55.717Z,53.80
2018-05-17T12:30:23.194Z,53.00
2018-05-17T12:32:50.634Z,52.80
2018-05-17T12:35:18.078Z,52.60
2018-05-17T12:37:45.517Z,52.80
2018-05-17T12:40:13.747Z,52.20
2018-05-17T12:42:41.238Z,52.20
2018-05-17T12:45:08.642Z,52.60
2018-05-17T12:47:36.113Z,52.70
2018-05-17T12:50:03.567Z,52.10
2018-05-17T12:52:31.022Z,51.30
2018-05-17T12:54:58.454Z,51.50
2018-05-17T12:57:25.934Z,51.90
2018-05-17T12:59:53.402Z,53.40
2018-05-17T13:02:21.054Z,52.70
2018-05-17T13:04:48.492Z,52.40
2018-05-17T13:07:15.926Z,53.40
2018-05-17T13:09:44.131Z,53.00
2018-05-17T13:12:11.579Z,53.00
2018-05-17T13:14:39.057Z,51.90
2018-05-17T13:17:06.514Z,52.10
2018-05-17T13:19:34.038Z,52.40
2018-05-17T13:22:01.466Z,52.50
2018-05-17T13:24:29.707Z,52.90
2018-05-17T13:26:57.274Z,52.90
2018-05-17T13:29:24.711Z,52.90
2018-05-17T13:31:52.142Z,53.00
2018-05-17T13:34:19.578Z,52.60
2018-05-17T13:36:47.783Z,52.60
2018-05-17T13:39:15.270Z,52.60
2018-05-17T13:41:42.723Z,52.00
2018-05-17T13:44:10.163Z,52.20
2018-05-17T13:46:37.621Z,52.90
2018-05-17T13:49:05.150Z,53.00
2018-05-17T13:51:32.658Z,53.20
2018-05-17T13:54:00.099Z,53.10
2018-05-17T13:56:27.674Z,52.80
2018-05-17T13:58:55.134Z,52.30
2018-05-17T14:01:22.582Z,52.60
2018-05-17T14:03:50.055Z,52.30
2018-05-17T14:06:17.601Z,52.20
2018-05-17T14:08:45.062Z,52.50
2018-05-17T14:11:12.525Z,52.20
2018-05-17T14:13:39.998Z,52.50
2018-05-17T14:16:07.538Z,52.20
2018-05-17T14:18:34.995Z,51.80
2018-05-17T14:21:02.546Z,51.00
2018-05-17T14:23:30.008Z,51.60
2018-05-17T14:25:57.453Z,52.10
2018-05-17T14:28:25.251Z,51.90
2018-05-17T14:30:52.802Z,51.70
2018-05-17T14:33:20.238Z,51.70
2018-05-17T14:35:47.699Z,51.80
2018-05-17T14:38:15.150Z,52.00
2018-05-17T14:40:42.591Z,51.70
2018-05-17T14:43:10.068Z,51.30
2018-05-17T14:45:37.531Z,51.80
2018-05-17T14:48:05.082Z,52.00
2018-05-17T14:50:32.542Z,51.60
2018-05-17T14:52:59.997Z,51.40
2018-05-17T14:55:27.454Z,52.20
2018-05-17T14:57:55.223Z,52.00
2018-05-17T15:00:22.678Z,52.30
2018-05-17T15:02:50.426Z,52.50
2018-05-17T15:05:17.895Z,52.80
2018-05-17T15:07:45.331Z,52.50
2018-05-17T15:10:12.896Z,52.20
2018-05-17T15:12:40.265Z,52.30
2018-05-17T15:15:07.722Z,52.20
2018-05-17T15:17:35.159Z,51.90
2018-05-17T15:20:02.601Z,52.30
2018-05-17T15:22:30.095Z,52.00
2018-05-17T15:24:57.552Z,51.90
2018-05-17T15:27:25.092Z,51.90
2018-05-17T15:29:53.188Z,51.70
2018-05-17T15:32:20.630Z,51.70
2018-05-17T15:34:48.095Z,51.80
2018-05-17T15:37:16.382Z,52.20
2018-05-17T15:39:43.930Z,52.20
2018-05-17T15:42:11.386Z,51.80
2018-05-17T15:44:38.821Z,51.20
2018-05-17T15:47:06.301Z,51.80
2018-05-17T15:49:33.812Z,51.60
2018-05-17T15:52:02.016Z,51.80
2018-05-17T15:54:29.451Z,51.80
2018-05-17T15:56:56.892Z,51.60
2018-05-17T15:59:25.121Z,51.30
2018-05-17T16:01:52.543Z,51.30
2018-05-17T16:04:19.974Z,51.80
2018-05-17T16:06:48.210Z,52.00
2018-05-17T16:09:15.666Z,51.70
2018-05-17T16:11:43.126Z,51.80
2018-05-17T16:14:10.566Z,51.30
2018-05-17T16:16:38.034Z,50.60
2018-05-17T16:19:05.471Z,51.60
2018-05-17T16:21:32.954Z,51.20
2018-05-17T16:24:00.393Z,51.40
2018-05-17T16:26:27.844Z,51.40
2018-05-17T16:28:55.315Z,51.40
2018-05-17T16:31:22.789Z,50.60
2018-05-17T16:33:50.333Z,51.70
2018-05-17T16:36:17.794Z,51.20
2018-05-17T16:38:45.242Z,51.40
2018-05-17T16:41:12.706Z,51.80
2018-05-17T16:43:40.173Z,51.20
2018-05-17T16:46:07.726Z,51.00
2018-05-17T16:48:35.207Z,50.20
2018-05-17T16:51:02.603Z,51.00
2018-05-17T16:53:30.097Z,50.30
2018-05-17T16:55:57.541Z,50.20
2018-05-17T16:58:25.019Z,50.20
2018-05-17T17:00:52.446Z,50.10
2018-05-17T17:03:19.922Z,49.80
2018-05-17T17:05:47.365Z,49.80
2018-05-17T17:08:14.802Z,50.10
2018-05-17T17:10:42.307Z,48.80
2018-05-17T17:13:09.855Z,49.60
2018-05-17T17:15:37.301Z,49.20
2018-05-17T17:18:04.770Z,48.90
2018-05-17T17:20:32.222Z,49.10
2018-05-17T17:22:59.675Z,49.10
2018-05-17T17:25:27.098Z,49.00
2018-05-17T17:27:54.604Z,49.20
2018-05-17T17:30:22.158Z,49.20
2018-05-17T17:32:49.611Z,48.90
2018-05-17T17:35:17.045Z,48.30
2018-05-17T17:37:44.479Z,48.40
2018-05-17T17:40:12.707Z,48.10
2018-05-17T17:42:40.160Z,48.10
2018-05-17T17:45:07.595Z,48.00
2018-05-17T17:47:35.026Z,48.00
2018-05-17T17:50:02.553Z,48.50
2018-05-17T17:52:30.682Z,49.00
2018-05-17T17:54:58.122Z,49.00
2018-05-17T17:57:25.610Z,48.70
2018-05-17T17:59:53.058Z,48.10
2018-05-17T18:02:20.497Z,48.40
2018-05-17T18:04:47.929Z,47.40
2018-05-17T18:07:16.138Z,48.00
2018-05-17T18:09:43.596Z,48.00
2018-05-17T18:12:11.054Z,48.70
2018-05-17T18:14:38.490Z,48.60
2018-05-17T18:17:07.062Z,48.30
2018-05-17T18:19:35.293Z,47.60
2018-05-17T18:22:02.786Z,47.60
2018-05-17T18:24:30.978Z,47.60
2018-05-17T18:26:58.415Z,47.50
2018-05-17T18:29:26.629Z,47.70
2018-05-17T18:31:54.105Z,47.70
2018-05-17T18:34:21.543Z,47.60
2018-05-17T18:36:48.984Z,48.00
2018-05-17T18:39:16.477Z,48.20
2018-05-17T18:41:43.970Z,48.20
2018-05-17T18:44:11.395Z,48.20
2018-05-17T18:46:38.871Z,47.80
2018-05-17T18:49:06.480Z,48.00
2018-05-17T18:51:34.002Z,47.70
2018-05-17T18:54:01.466Z,47.80
2018-05-17T18:56:28.893Z,47.90
2018-05-17T18:58:56.325Z,47.80
2018-05-17T19:01:23.780Z,47.70
2018-05-17T19:03:51.210Z,47.70
2018-05-17T19:06:18.646Z,47.80
2018-05-17T19:08:46.867Z,47.70
2018-05-17T19:11:14.302Z,47.70
2018-05-17T19:13:41.734Z,47.80
2018-05-17T19:16:09.930Z,47.70
2018-05-17T19:18:37.374Z,47.70
2018-05-17T19:21:05.592Z,48.10
2018-05-17T19:23:33.034Z,48.10
2018-05-17T19:26:00.469Z,48.20
2018-05-17T19:28:27.911Z,48.10
2018-05-17T19:30:56.110Z,48.10
2018-05-17T19:33:23.545Z,48.10
2018-05-17T19:35:51.742Z,48.30
2018-05-17T19:38:19.177Z,48.30
2018-05-17T19:40:47.403Z,47.90
2018-05-17T19:43:14.842Z,47.90
2018-05-17T19:45:42.275Z,48.20
2018-05-17T19:48:09.719Z,48.50
2018-05-17T19:50:37.930Z,48.40
2018-05-17T19:53:05.370Z,48.40
2018-05-17T19:55:32.801Z,48.40
2018-05-17T19:58:01.031Z,47.90
2018-05-17T20:00:28.458Z,47.80
2018-05-17T20:02:55.906Z,48.30
2018-05-17T20:05:24.106Z,47.80
2018-05-17T20:07:51.562Z,47.80
2018-05-17T20:10:18.993Z,47.60
2018-05-17T20:12:46.439Z,47.90
2018-05-17T20:15:14.648Z,47.90
2018-05-17T20:17:42.122Z,47.80
2018-05-17T20:20:09.574Z,48.00
2018-05-17T20:22:37.038Z,48.20
2018-05-17T20:25:04.504Z,47.80
2018-05-17T20:27:31.962Z,47.90
2018-05-17T20:29:59.437Z,48.20
2018-05-17T20:32:26.886Z,48.20
2018-05-17T20:34:54.454Z,48.20
2018-05-17T20:37:21.883Z,48.60
2018-05-17T20:39:49.327Z,48.30
2018-05-17T20:42:16.765Z,48.10
2018-05-17T20:44:44.218Z,48.60
2018-05-17T20:47:11.712Z,48.60
2018-05-17T20:49:39.190Z,48.50
2018-05-17T20:52:06.589Z,48.50
2018-05-17T20:54:34.082Z,48.30
2018-05-17T20:57:01.560Z,48.50
2018-05-17T20:59:28.997Z,48.60
2018-05-17T21:01:56.444Z,48.50
2018-05-17T21:04:23.910Z,48.40
2018-05-17T21:06:51.475Z,48.60
2018-05-17T21:09:18.922Z,48.40
2018-05-17T21:11:47.035Z,48.70
2018-05-17T21:14:15.249Z,48.40
2018-05-17T21:16:42.677Z,48.30
2018-05-17T21:19:10.883Z,48.40
2018-05-17T21:21:38.366Z,48.40
2018-05-17T21:24:05.809Z,48.70
2018-05-17T21:26:33.273Z,48.40
2018-05-17T21:29:00.731Z,48.70
2018-05-17T21:31:28.191Z,48.70
2018-05-17T21:33:55.635Z,48.80
2018-05-17T21:36:23.065Z,48.70
2018-05-17T21:38:50.566Z,48.70
2018-05-17T21:41:18.021Z,48.60
2018-05-17T21:43:45.470Z,48.70
2018-05-17T21:46:13.035Z,48.70
2018-05-17T21:48:40.469Z,48.50
2018-05-17T21:51:08.358Z,48.60
2018-05-17T21:53:35.915Z,48.80
2018-05-17T21:56:03.474Z,48.90
2018-05-17T21:58:31.706Z,48.90
2018-05-17T22:00:59.141Z,48.80
2018-05-17T22:03:27.378Z,49.20
2018-05-17T22:05:54.840Z,48.70
2018-05-17T22:08:23.119Z,48.80
2018-05-17T22:10:50.671Z,48.80
2018-05-17T22:13:18.106Z,48.80
2018-05-17T22:15:45.542Z,49.70
2018-05-17T22:18:12.986Z,49.00
2018-05-17T22:20:41.222Z,49.20
2018-05-17T22:23:08.694Z,49.20
2018-05-17T22:25:36.242Z,49.50
2018-05-17T22:28:03.692Z,49.60
2018-05-17T22:30:31.131Z,49.80
2018-05-17T22:32:58.570Z,49.70
2018-05-17T22:35:26.010Z,49.90
2018-05-17T22:37:54.214Z,49.90
2018-05-17T22:40:21.689Z,49.90
2018-05-17T22:42:49.126Z,49.80
2018-05-17T22:45:16.606Z,50.00
2018-05-17T22:47:44.047Z,49.70
2018-05-17T22:50:11.487Z,50.10
2018-05-17T22:52:38.973Z,49.90
2018-05-17T22:55:06.434Z,50.10
2018-05-17T22:57:45.783Z,50.10
2018-05-17T23:00:16.132Z,50.30
2018-05-17T23:02:44.333Z,50.00
2018-05-17T23:05:11.774Z,50.00
2018-05-17T23:07:39.979Z,50.00
2018-05-17T23:10:07.422Z,50.00
2018-05-17T23:12:34.869Z,50.10
2018-05-17T23:15:02.370Z,50.10
2018-05-17T23:17:29.819Z,50.50
2018-05-17T23:19:57.461Z,50.50
2018-05-17T23:22:36.005Z,50.50
2018-05-17T23:25:03.573Z,50.60
2018-05-17T23:27:31.011Z,50.50
2018-05-17T23:29:58.478Z,50.60
2018-05-17T23:32:25.938Z,50.70
2018-05-17T23:34:53.378Z,50.90
2018-05-17T23:37:21.771Z,50.90
2018-05-17T23:39:49.214Z,50.80
2018-05-17T23:42:16.689Z,51.00
2018-05-17T23:44:44.755Z,51.10
2018-05-17T23:47:12.192Z,51.00
2018-05-17T23:49:39.980Z,51.00
2018-05-17T23:52:07.410Z,51.10
2018-05-17T23:54:34.853Z,51.30
2018-05-17T23:57:02.289Z,51.20
2018-05-17T23:59:30.498Z,51.30
